Time;durP1;ratioP1;P1;durP2;ratioP2;P2;SDS_P1;SDS_P2;PMS_P1;PMS_P2;Temp;Humidity;BMP_temperature;BMP_pressure;BME280_temperature;BME280_humidity;BME280_pressure;Samples;Min_cycle;Max_cycle;Signal;HPM_P1;HPM_P2
2022/09/15 00:04:50;;;;;;;3.08;1.75;;;;;;;;;;5071699;28;20427;-76
2022/09/15 00:11:05;;;;;;;6.55;2.17;;;;;;;;;;5112160;27;20473;-76
2022/09/15 00:13:31;;;;;;;2.70;1.70;;;;;;;;;;5111442;28;20038;-76
2022/09/15 00:15:58;;;;;;;3.47;1.58;;;;;;;;;;5110902;28;20085;-76
2022/09/15 00:18:44;;;;;;;2.22;1.50;;;;;;;;;;5111745;27;20465;-76
2022/09/15 00:21:50;;;;;;;3.80;1.77;;;;;;;;;;5111287;27;20426;-76
2022/09/15 00:26:44;;;;;;;3.35;1.67;;;;;;;;;;5112138;27;20465;-76
2022/09/15 00:29:10;;;;;;;4.38;1.90;;;;;;;;;;5111395;28;20029;-75
2022/09/15 00:31:36;;;;;;;3.97;2.13;;;;;;;;;;5111334;28;20095;-76
2022/09/15 00:35:06;;;;;;;3.08;1.75;;;;;;;;;;5112268;27;20481;-76
2022/09/15 00:43:11;;;;;;;2.85;1.70;;;;;;;;;;5111124;27;20420;-76
2022/09/15 00:49:35;;;;;;;3.58;1.73;;;;;;;;;;5111426;27;20477;-76
2022/09/15 00:52:56;;;;;;;3.72;1.60;;;;;;;;;;5111901;27;20412;-76
2022/09/15 00:55:26;;;;;;;2.97;1.67;;;;;;;;;;5110069;28;20031;-75
2022/09/15 00:57:58;;;;;;;4.28;1.90;;;;;;;;;;5111086;28;20016;-76
2022/09/15 01:00:26;;;;;;;3.17;1.80;;;;;;;;;;5111281;28;20061;-76
2022/09/15 01:02:53;;;;;;;3.58;1.65;;;;;;;;;;5111241;28;20069;-76
2022/09/15 01:05:21;;;;;;;1.98;1.35;;;;;;;;;;5110875;28;20515;-76
2022/09/15 01:07:56;;;;;;;4.13;1.90;;;;;;;;;;5111250;28;20052;-76
2022/09/15 01:11:13;;;;;;;2.92;1.67;;;;;;;;;;5111747;27;20416;-77
2022/09/15 01:13:40;;;;;;;4.00;2.22;;;;;;;;;;5111414;28;20031;-76
2022/09/15 01:16:06;;;;;;;2.97;1.60;;;;;;;;;;5111383;28;20379;-77
2022/09/15 01:20:14;;;;;;;2.97;1.52;;;;;;;;;;5070531;28;20419;-76
2022/09/15 01:22:50;;;;;;;2.85;1.73;;;;;;;;;;5070971;28;20033;-76
2022/09/15 01:25:16;;;;;;;2.13;1.27;;;;;;;;;;5070361;28;20048;-76
2022/09/15 01:28:56;;;;;;;2.58;1.30;;;;;;;;;;5111597;27;20920;-76
2022/09/15 01:31:22;;;;;;;1.90;1.25;;;;;;;;;;5111477;28;20059;-76
2022/09/15 01:33:56;;;;;;;2.83;1.48;;;;;;;;;;5110974;28;20472;-76
2022/09/15 01:39:54;;;;;;;2.60;1.63;;;;;;;;;;5111316;27;20818;-77
2022/09/15 01:42:21;;;;;;;3.38;1.73;;;;;;;;;;5110204;28;20024;-76
2022/09/15 01:46:26;;;;;;;3.53;2.05;;;;;;;;;;5111162;27;20428;-76
2022/09/15 01:48:54;;;;;;;4.45;1.77;;;;;;;;;;5111423;28;20016;-76
2022/09/15 01:51:21;;;;;;;9.38;2.35;;;;;;;;;;5110097;28;20028;-76
2022/09/15 01:53:48;;;;;;;3.25;1.80;;;;;;;;;;5111028;28;20095;-76
2022/09/15 01:57:51;;;;;;;2.88;1.70;;;;;;;;;;5071234;28;20422;-76
2022/09/15 02:00:18;;;;;;;3.03;1.73;;;;;;;;;;5070398;28;20060;-75
2022/09/15 02:03:54;;;;;;;4.80;1.83;;;;;;;;;;5111793;27;20416;-76
2022/09/15 02:09:16;;;;;;;3.33;1.60;;;;;;;;;;5111130;27;20920;-77
2022/09/15 02:12:01;;;;;;;3.13;1.80;;;;;;;;;;5111717;28;20028;-76
2022/09/15 02:22:25;;;;;;;3.47;1.63;;;;;;;;;;5111262;27;20485;-76
2022/09/15 02:26:54;;;;;;;7.60;1.90;;;;;;;;;;5112110;27;20493;-76
2022/09/15 02:29:22;;;;;;;2.92;1.60;;;;;;;;;;5109951;28;20028;-76
2022/09/15 02:31:51;;;;;;;5.10;2.03;;;;;;;;;;5111581;28;20016;-77
2022/09/15 02:34:23;;;;;;;4.50;2.22;;;;;;;;;;5111365;28;20022;-77
2022/09/15 02:36:51;;;;;;;3.78;1.90;;;;;;;;;;5111307;28;20141;-77
2022/09/15 02:46:20;;;;;;;3.50;1.77;;;;;;;;;;5111772;27;20424;-76
2022/09/15 02:52:29;;;;;;;3.05;1.80;;;;;;;;;;5111749;27;20415;-76
2022/09/15 02:55:14;;;;;;;5.03;2.00;;;;;;;;;;5111893;27;20412;-76
2022/09/15 02:57:40;;;;;;;5.30;2.45;;;;;;;;;;5127046;28;20032;-76
2022/09/15 03:00:13;;;;;;;8.73;2.40;;;;;;;;;;5111360;28;20538;-76
2022/09/15 03:02:50;;;;;;;4.60;2.33;;;;;;;;;;5111752;28;20027;-77
2022/09/15 03:05:17;;;;;;;4.28;2.53;;;;;;;;;;5111024;28;20081;-77
2022/09/15 03:07:43;;;;;;;6.63;2.45;;;;;;;;;;5111381;28;20024;-78
2022/09/15 03:10:11;;;;;;;4.32;2.35;;;;;;;;;;5111255;28;20024;-77
2022/09/15 03:12:40;;;;;;;5.82;2.22;;;;;;;;;;5110942;28;20051;-77
2022/09/15 03:18:08;;;;;;;10.70;4.60;;;;;;;;;;5111574;27;20465;-78
2022/09/15 03:20:34;;;;;;;9.00;4.35;;;;;;;;;;5111465;28;20476;-77
2022/09/15 03:24:30;;;;;;;7.97;3.75;;;;;;;;;;5111465;27;20412;-77
2022/09/15 03:26:56;;;;;;;6.32;2.83;;;;;;;;;;5112028;28;20028;-76
2022/09/15 03:29:22;;;;;;;4.40;2.35;;;;;;;;;;5111551;28;20028;-77
2022/09/15 03:31:48;;;;;;;5.15;2.67;;;;;;;;;;5110917;28;20028;-77
2022/09/15 03:34:14;;;;;;;5.90;2.30;;;;;;;;;;5110108;28;20476;-77
2022/09/15 03:36:41;;;;;;;6.90;3.38;;;;;;;;;;5111335;28;20498;-79
2022/09/15 03:39:07;;;;;;;6.70;2.63;;;;;;;;;;5111164;28;20016;-78
2022/09/15 03:41:33;;;;;;;4.72;2.78;;;;;;;;;;5111317;28;20062;-78
2022/09/15 03:43:59;;;;;;;5.32;2.20;;;;;;;;;;5111276;28;20184;-78
2022/09/15 03:46:26;;;;;;;7.30;2.33;;;;;;;;;;5110670;28;20073;-79
2022/09/15 03:48:52;;;;;;;4.85;2.45;;;;;;;;;;5111197;28;20032;-79
2022/09/15 03:52:53;;;;;;;3.90;2.60;;;;;;;;;;5111197;27;20392;-77
2022/09/15 03:56:08;;;;;;;7.00;2.47;;;;;;;;;;5111431;27;20424;-78
2022/09/15 03:58:34;;;;;;;4.18;2.15;;;;;;;;;;5111675;28;20031;-77
2022/09/15 04:01:01;;;;;;;4.70;2.28;;;;;;;;;;5110894;28;20022;-77
2022/09/15 04:05:17;;;;;;;4.80;2.47;;;;;;;;;;5111705;27;20473;-77
2022/09/15 04:12:54;;;;;;;5.63;2.22;;;;;;;;;;5111860;27;20322;-78
2022/09/15 04:15:48;;;;;;;5.63;2.30;;;;;;;;;;5111191;27;20469;-76
2022/09/15 04:18:14;;;;;;;9.68;3.17;;;;;;;;;;5110531;28;20020;-78
2022/09/15 04:20:41;;;;;;;4.35;2.33;;;;;;;;;;5111652;28;20024;-77
2022/09/15 04:23:07;;;;;;;5.20;2.03;;;;;;;;;;5111030;28;20024;-76
2022/09/15 04:25:33;;;;;;;4.82;2.38;;;;;;;;;;5110109;28;20073;-77
2022/09/15 04:28:09;;;;;;;4.85;2.85;;;;;;;;;;5111560;27;21062;-77
2022/09/15 04:31:15;;;;;;;4.80;2.80;;;;;;;;;;5111805;27;21000;-78
2022/09/15 04:33:42;;;;;;;6.03;3.10;;;;;;;;;;5111648;28;20032;-78
2022/09/15 04:36:22;;;;;;;9.40;2.50;;;;;;;;;;5111351;27;20420;-77
2022/09/15 04:38:49;;;;;;;5.82;2.78;;;;;;;;;;5110138;28;20488;-78
2022/09/15 04:41:15;;;;;;;5.63;2.50;;;;;;;;;;5110108;28;20032;-79
2022/09/15 04:43:44;;;;;;;5.13;2.30;;;;;;;;;;5109835;28;20380;-77
2022/09/15 04:46:11;;;;;;;5.82;2.30;;;;;;;;;;5111443;28;20039;-78
2022/09/15 04:53:30;;;;;;;7.82;4.15;;;;;;;;;;5112253;27;20973;-76
2022/09/15 04:56:03;;;;;;;9.05;3.72;;;;;;;;;;5111110;28;20511;-76
2022/09/15 04:59:46;;;;;;;9.70;3.50;;;;;;;;;;5111313;27;20461;-77
2022/09/15 05:02:12;;;;;;;5.40;3.15;;;;;;;;;;5111226;28;20032;-76
2022/09/15 05:04:38;;;;;;;7.55;3.83;;;;;;;;;;5110910;28;20077;-77
2022/09/15 05:08:57;;;;;;;8.85;3.95;;;;;;;;;;5111678;27;20412;-77
2022/09/15 05:11:24;;;;;;;5.55;3.03;;;;;;;;;;5106236;28;20047;-75
2022/09/15 05:13:50;;;;;;;5.68;3.30;;;;;;;;;;5110839;28;20066;-75
2022/09/15 05:18:47;;;;;;;6.72;3.50;;;;;;;;;;5070082;28;20996;-77
2022/09/15 05:22:17;;;;;;;6.90;2.70;;;;;;;;;;5110651;27;20388;-75
2022/09/15 05:25:00;;;;;;;5.93;3.17;;;;;;;;;;5110606;27;20911;-77
2022/09/15 05:29:56;;;;;;;5.68;2.80;;;;;;;;;;5085093;27;20371;-74
2022/09/15 05:32:25;;;;;;;4.93;2.30;;;;;;;;;;5090273;28;20154;-76
2022/09/15 05:34:52;;;;;;;6.85;2.63;;;;;;;;;;5088787;28;20027;-75
2022/09/15 05:38:25;;;;;;;7.82;2.42;;;;;;;;;;5103125;27;20477;-79
2022/09/15 05:41:16;;;;;;;4.47;2.15;;;;;;;;;;5110278;27;20404;-77
2022/09/15 05:43:43;;;;;;;4.65;2.17;;;;;;;;;;5108530;28;20020;-79
2022/09/15 05:48:33;;;;;;;7.25;2.75;;;;;;;;;;5110699;27;20481;-79
2022/09/15 05:51:00;;;;;;;8.32;3.25;;;;;;;;;;5110124;28;20024;-75
2022/09/15 05:53:26;;;;;;;9.60;4.35;;;;;;;;;;5109429;28;20031;-76
2022/09/15 05:57:04;;;;;;;11.02;4.47;;;;;;;;;;5110095;27;20412;-77
2022/09/15 05:59:53;;;;;;;11.80;4.80;;;;;;;;;;5110766;27;20384;-76
2022/09/15 06:03:54;;;;;;;12.77;4.72;;;;;;;;;;5110440;27;20389;-76
2022/09/15 06:06:21;;;;;;;13.05;5.13;;;;;;;;;;5109704;28;20073;-78
2022/09/15 06:08:48;;;;;;;13.82;5.43;;;;;;;;;;5104473;28;20038;-77
2022/09/15 06:11:19;;;;;;;13.23;5.97;;;;;;;;;;5093934;28;20522;-77
2022/09/15 06:16:12;;;;;;;11.63;6.03;;;;;;;;;;5131179;27;20323;-80
2022/09/15 06:18:39;;;;;;;16.73;9.00;;;;;;;;;;5111743;28;20356;-81
2022/09/15 06:22:21;;;;;;;19.80;8.40;;;;;;;;;;5101197;27;20436;-76
2022/09/15 06:25:01;;;;;;;14.85;6.75;;;;;;;;;;5170918;27;20407;-78
2022/09/15 06:29:44;;;;;;;11.02;4.50;;;;;;;;;;5069317;28;20431;-79
2022/09/15 06:32:32;;;;;;;14.80;5.43;;;;;;;;;;5109190;27;20465;-77
2022/09/15 06:34:59;;;;;;;11.10;4.65;;;;;;;;;;5107637;28;20028;-80
2022/09/15 06:39:11;;;;;;;7.70;4.13;;;;;;;;;;5028728;28;21186;-83
2022/09/15 06:42:13;;;;;;;6.75;2.55;;;;;;;;;;5109547;27;20420;-83
2022/09/15 06:44:39;;;;;;;6.07;2.47;;;;;;;;;;5109643;28;20031;-79
2022/09/15 06:47:51;;;;;;;7.05;2.75;;;;;;;;;;5110951;27;20490;-78
2022/09/15 06:52:28;;;;;;;6.70;2.50;;;;;;;;;;5171640;27;20818;-75
2022/09/15 06:54:54;;;;;;;4.63;1.98;;;;;;;;;;5151659;27;20544;-77
2022/09/15 06:57:20;;;;;;;7.45;2.55;;;;;;;;;;5119913;28;20047;-79
2022/09/15 06:59:55;;;;;;;5.32;2.33;;;;;;;;;;5109961;27;20419;-76
2022/09/15 07:04:04;;;;;;;4.95;2.22;;;;;;;;;;5108999;27;20396;-79
2022/09/15 07:08:07;;;;;;;8.88;2.08;;;;;;;;;;5110403;27;20416;-77
2022/09/15 07:10:33;;;;;;;4.30;2.25;;;;;;;;;;5108954;28;20392;-76
2022/09/15 07:13:00;;;;;;;5.78;1.92;;;;;;;;;;5110737;28;20031;-77
2022/09/15 07:15:26;;;;;;;4.93;2.30;;;;;;;;;;5110876;28;20016;-77
2022/09/15 07:17:52;;;;;;;6.00;1.73;;;;;;;;;;5110222;28;20458;-74
2022/09/15 07:20:19;;;;;;;2.88;1.60;;;;;;;;;;5104868;28;20031;-75
2022/09/15 07:26:14;;;;;;;5.72;2.13;;;;;;;;;;5102969;27;20419;-76
2022/09/15 07:28:41;;;;;;;3.80;1.85;;;;;;;;;;5087099;28;20028;-79
2022/09/15 07:34:07;;;;;;;4.85;2.10;;;;;;;;;;5108674;27;20421;-78
2022/09/15 07:36:43;;;;;;;4.38;2.08;;;;;;;;;;5105365;27;20433;-76
2022/09/15 07:42:28;;;;;;;4.45;2.00;;;;;;;;;;5110366;27;20772;-73
2022/09/15 07:44:54;;;;;;;4.22;1.77;;;;;;;;;;5105618;28;20389;-78
2022/09/15 07:48:34;;;;;;;4.55;1.77;;;;;;;;;;5110111;27;20470;-73
2022/09/15 07:51:00;;;;;;;4.88;1.80;;;;;;;;;;5106316;28;20428;-74
2022/09/15 07:53:30;;;;;;;3.42;1.92;;;;;;;;;;5092768;28;20027;-72
2022/09/15 07:55:56;;;;;;;8.48;2.15;;;;;;;;;;5109082;28;20023;-76
2022/09/15 07:59:58;;;;;;;3.67;1.80;;;;;;;;;;5068722;28;20419;-75
2022/09/15 08:02:25;;;;;;;4.82;2.15;;;;;;;;;;5050125;28;20041;-79
2022/09/15 08:05:49;;;;;;;5.78;1.83;;;;;;;;;;5151903;27;20408;-83
2022/09/15 08:08:15;;;;;;;5.55;2.20;;;;;;;;;;5139233;27;20023;-82
2022/09/15 08:10:42;;;;;;;5.25;2.00;;;;;;;;;;5151014;27;20052;-74
2022/09/15 08:13:08;;;;;;;5.13;1.80;;;;;;;;;;5151673;27;20075;-80
2022/09/15 08:17:45;;;;;;;4.70;1.88;;;;;;;;;;5090129;27;20390;-78
2022/09/15 08:20:12;;;;;;;4.38;2.03;;;;;;;;;;5089713;28;20024;-75
2022/09/15 08:25:23;;;;;;;2.78;1.35;;;;;;;;;;5106016;27;20336;-80
2022/09/15 08:27:49;;;;;;;8.55;1.60;;;;;;;;;;5106309;28;20384;-80
2022/09/15 08:30:15;;;;;;;3.42;1.30;;;;;;;;;;5105464;28;20083;-76
2022/09/15 08:32:41;;;;;;;4.18;1.67;;;;;;;;;;5105362;28;20028;-76
2022/09/15 08:38:33;;;;;;;2.90;1.42;;;;;;;;;;5106600;27;20404;-76
2022/09/15 08:41:05;;;;;;;1.92;1.23;;;;;;;;;;5107877;28;20028;-80
2022/09/15 08:45:20;;;;;;;2.45;1.17;;;;;;;;;;5095752;27;20381;-77
2022/09/15 08:47:47;;;;;;;4.30;1.48;;;;;;;;;;5086909;28;20072;-75
2022/09/15 08:50:14;;;;;;;1.52;1.08;;;;;;;;;;5087434;28;20020;-77
2022/09/15 08:52:40;;;;;;;4.15;1.48;;;;;;;;;;5088049;28;20047;-76
2022/09/15 08:56:03;;;;;;;3.10;1.15;;;;;;;;;;5119824;27;20425;-75
2022/09/15 08:58:31;;;;;;;10.32;1.90;;;;;;;;;;5077648;28;20064;-77
2022/09/15 09:02:13;;;;;;;2.30;1.20;;;;;;;;;;5068446;28;20915;-76
2022/09/15 09:05:07;;;;;;;2.92;1.40;;;;;;;;;;5067074;28;20547;-75
2022/09/15 09:07:54;;;;;;;3.03;1.10;;;;;;;;;;5068538;28;20494;-77
2022/09/15 09:10:40;;;;;;;4.50;1.17;;;;;;;;;;5067638;28;20025;-77
2022/09/15 09:16:40;;;;;;;3.05;1.60;;;;;;;;;;5109992;27;20774;-77
2022/09/15 09:19:22;;;;;;;3.28;1.45;;;;;;;;;;5110354;28;20383;-77
2022/09/15 09:21:53;;;;;;;3.08;1.35;;;;;;;;;;5110251;28;20361;-79
2022/09/15 09:24:28;;;;;;;5.78;2.10;;;;;;;;;;5102106;28;20024;-77
2022/09/15 09:27:48;;;;;;;6.68;1.55;;;;;;;;;;5108685;27;20477;-78
2022/09/15 09:30:24;;;;;;;2.28;1.25;;;;;;;;;;5107634;28;20028;-79
2022/09/15 09:32:54;;;;;;;3.50;1.73;;;;;;;;;;5110078;28;20020;-77
2022/09/15 09:35:31;;;;;;;2.22;1.13;;;;;;;;;;5110234;28;20523;-78
2022/09/15 09:37:58;;;;;;;2.75;1.20;;;;;;;;;;5109947;28;20060;-78
2022/09/15 09:40:26;;;;;;;2.70;1.30;;;;;;;;;;5110295;28;20024;-78
2022/09/15 09:42:53;;;;;;;3.30;1.00;;;;;;;;;;5110236;28;20050;-79
2022/09/15 09:45:22;;;;;;;2.17;1.02;;;;;;;;;;5109911;28;20503;-79
2022/09/15 09:49:49;;;;;;;4.72;1.48;;;;;;;;;;5105363;27;20854;-78
2022/09/15 09:52:41;;;;;;;3.05;1.35;;;;;;;;;;5109259;28;20243;-79
2022/09/15 09:55:16;;;;;;;2.87;1.57;;;;;;;;;;5121499;28;20089;-77
2022/09/15 09:57:42;;;;;;;5.32;1.50;;;;;;;;;;5110012;28;20020;-76
2022/09/15 10:00:28;;;;;;;3.63;1.38;;;;;;;;;;5110472;28;20487;-75
2022/09/15 10:02:54;;;;;;;1.40;1.00;;;;;;;;;;5111684;28;20115;-78
2022/09/15 10:05:21;;;;;;;4.43;1.25;;;;;;;;;;5130352;28;20439;-76
2022/09/15 10:07:47;;;;;;;2.50;1.17;;;;;;;;;;5129804;28;20472;-77
2022/09/15 10:10:23;;;;;;;7.50;1.55;;;;;;;;;;5128953;28;20372;-73
2022/09/15 10:12:50;;;;;;;3.53;1.88;;;;;;;;;;5128952;28;20027;-75
2022/09/15 10:15:28;;;;;;;5.55;1.50;;;;;;;;;;5129051;28;20569;-75
2022/09/15 10:17:55;;;;;;;2.72;1.35;;;;;;;;;;5130074;28;20102;-73
2022/09/15 10:20:31;;;;;;;3.90;1.50;;;;;;;;;;5127587;28;20460;-77
2022/09/15 10:23:05;;;;;;;4.25;1.25;;;;;;;;;;5115008;28;20468;-75
2022/09/15 10:25:33;;;;;;;3.40;1.45;;;;;;;;;;5098494;28;20043;-78
2022/09/15 10:28:09;;;;;;;3.45;1.30;;;;;;;;;;5089081;28;20066;-74
2022/09/15 10:30:36;;;;;;;3.47;1.42;;;;;;;;;;5088007;28;20035;-78
2022/09/15 10:33:20;;;;;;;2.40;1.20;;;;;;;;;;5088102;28;20472;-80
2022/09/15 10:35:46;;;;;;;2.63;1.27;;;;;;;;;;5088827;28;20025;-84
2022/09/15 10:38:14;;;;;;;3.72;1.40;;;;;;;;;;5088762;28;20031;-79
2022/09/15 10:40:43;;;;;;;2.05;1.20;;;;;;;;;;5088328;28;20090;-79
2022/09/15 10:43:16;;;;;;;6.43;1.30;;;;;;;;;;5087749;28;20031;-78
2022/09/15 10:45:47;;;;;;;3.22;1.60;;;;;;;;;;5089009;28;20020;-76
2022/09/15 10:48:32;;;;;;;4.07;2.03;;;;;;;;;;5088521;28;20038;-76
2022/09/15 10:51:03;;;;;;;4.25;1.40;;;;;;;;;;5125466;28;20076;-76
2022/09/15 10:53:38;;;;;;;2.42;1.50;;;;;;;;;;5129465;28;20094;-77
2022/09/15 10:56:13;;;;;;;4.50;2.03;;;;;;;;;;5119333;28;20028;-76
2022/09/15 10:58:48;;;;;;;5.50;2.13;;;;;;;;;;5101315;28;20107;-75
2022/09/15 11:01:14;;;;;;;2.83;1.20;;;;;;;;;;5085296;28;20020;-75
2022/09/15 11:03:40;;;;;;;8.25;2.17;;;;;;;;;;5092086;28;20073;-74
2022/09/15 11:06:16;;;;;;;4.45;1.50;;;;;;;;;;5092477;28;20039;-76
2022/09/15 11:08:48;;;;;;;1.42;1.00;;;;;;;;;;5093727;28;20068;-76
2022/09/15 11:11:37;;;;;;;1.83;1.15;;;;;;;;;;5090043;28;20127;-74
2022/09/15 11:16:00;;;;;;;2.17;1.10;;;;;;;;;;5066367;28;20404;-74
2022/09/15 11:18:36;;;;;;;4.15;2.00;;;;;;;;;;5067774;28;20090;-75
2022/09/15 11:21:21;;;;;;;3.25;1.48;;;;;;;;;;5067947;28;20025;-80
2022/09/15 11:23:47;;;;;;;3.33;1.30;;;;;;;;;;5067333;28;20028;-75
2022/09/15 11:26:19;;;;;;;5.75;2.15;;;;;;;;;;5066763;28;20024;-74
2022/09/15 11:28:49;;;;;;;4.45;1.73;;;;;;;;;;5058844;28;20132;-75
2022/09/15 11:31:17;;;;;;;3.95;1.42;;;;;;;;;;5063017;28;20132;-80
2022/09/15 11:33:44;;;;;;;2.13;1.20;;;;;;;;;;5068309;28;20025;-78
2022/09/15 11:36:14;;;;;;;1.60;1.08;;;;;;;;;;5069282;28;20032;-75
2022/09/15 11:38:51;;;;;;;2.65;1.27;;;;;;;;;;5057905;28;20041;-76
2022/09/15 11:41:17;;;;;;;3.80;1.42;;;;;;;;;;5062451;28;20071;-74
2022/09/15 11:43:44;;;;;;;4.70;1.58;;;;;;;;;;5068338;28;20028;-74
2022/09/15 11:46:14;;;;;;;3.85;1.50;;;;;;;;;;5067440;28;20531;-74
2022/09/15 11:48:54;;;;;;;2.40;1.27;;;;;;;;;;5067777;28;20029;-76
2022/09/15 11:51:21;;;;;;;2.33;1.23;;;;;;;;;;5066652;28;20091;-75
2022/09/15 11:53:57;;;;;;;3.10;1.38;;;;;;;;;;5065213;28;20021;-75
2022/09/15 11:56:30;;;;;;;3.40;1.35;;;;;;;;;;5066818;28;20103;-76
2022/09/15 11:59:05;;;;;;;10.88;2.13;;;;;;;;;;5066503;28;20035;-73
2022/09/15 12:01:35;;;;;;;4.93;1.63;;;;;;;;;;5068580;28;20057;-74
2022/09/15 12:04:01;;;;;;;5.45;1.23;;;;;;;;;;5068549;28;20032;-75
2022/09/15 12:06:51;;;;;;;2.10;1.35;;;;;;;;;;5068127;28;20056;-74
2022/09/15 12:09:18;;;;;;;5.00;1.33;;;;;;;;;;5067779;28;20047;-75
2022/09/15 12:11:45;;;;;;;2.53;1.20;;;;;;;;;;5068746;28;20020;-75
2022/09/15 12:14:34;;;;;;;2.42;0.90;;;;;;;;;;5066655;28;20059;-75
2022/09/15 12:17:01;;;;;;;4.15;1.38;;;;;;;;;;5066828;28;20033;-76
2022/09/15 12:19:33;;;;;;;2.38;1.10;;;;;;;;;;5066612;28;20024;-75
2022/09/15 12:22:04;;;;;;;2.72;1.10;;;;;;;;;;5067714;28;20025;-74
2022/09/15 12:24:50;;;;;;;3.83;1.30;;;;;;;;;;5068000;28;20025;-74
2022/09/15 12:27:17;;;;;;;3.72;1.20;;;;;;;;;;5053451;28;20248;-74
2022/09/15 12:29:54;;;;;;;3.58;1.15;;;;;;;;;;5053569;28;20035;-75
2022/09/15 12:32:23;;;;;;;2.50;1.13;;;;;;;;;;5053513;28;20417;-75
2022/09/15 12:35:02;;;;;;;2.45;1.05;;;;;;;;;;5051839;28;20045;-75
2022/09/15 12:37:38;;;;;;;1.50;0.93;;;;;;;;;;5051744;28;20032;-76
2022/09/15 12:40:06;;;;;;;2.38;1.40;;;;;;;;;;5051553;28;20021;-73
2022/09/15 12:42:33;;;;;;;2.72;1.10;;;;;;;;;;5053365;28;20416;-77
2022/09/15 12:45:18;;;;;;;4.25;1.10;;;;;;;;;;5052607;28;20091;-77
2022/09/15 12:47:50;;;;;;;2.60;1.50;;;;;;;;;;5052456;28;20017;-77
2022/09/15 12:50:16;;;;;;;6.70;1.67;;;;;;;;;;5052938;28;20021;-77
2022/09/15 12:52:44;;;;;;;3.95;1.40;;;;;;;;;;5052937;28;20418;-75
2022/09/15 12:55:16;;;;;;;2.53;1.10;;;;;;;;;;5053210;28;20036;-74
2022/09/15 12:57:42;;;;;;;;;;;;;;;;;;5054158;28;20029;-74
2022/09/15 13:00:24;;;;;;;5.20;1.38;;;;;;;;;;5054679;28;19978;-72
2022/09/15 13:02:51;;;;;;;2.57;1.30;;;;;;;;;;5055299;28;20119;-72
2022/09/15 13:05:35;;;;;;;2.70;1.40;;;;;;;;;;5055435;28;20021;-73
2022/09/15 13:08:02;;;;;;;2.60;1.20;;;;;;;;;;5055425;28;20465;-74
2022/09/15 13:10:36;;;;;;;3.90;0.98;;;;;;;;;;5054105;28;20484;-73
2022/09/15 13:13:24;;;;;;;7.32;1.20;;;;;;;;;;5055349;28;20480;-73
2022/09/15 13:15:51;;;;;;;3.75;1.25;;;;;;;;;;5054678;28;20138;-74
2022/09/15 13:18:18;;;;;;;3.38;1.10;;;;;;;;;;5055210;28;20025;-73
2022/09/15 13:20:50;;;;;;;3.03;1.27;;;;;;;;;;5054826;28;20028;-74
2022/09/15 13:23:18;;;;;;;5.20;1.52;;;;;;;;;;5053418;28;20178;-72
2022/09/15 13:25:45;;;;;;;3.60;1.38;;;;;;;;;;5053872;28;20036;-73
2022/09/15 13:28:12;;;;;;;6.40;1.40;;;;;;;;;;5052974;28;20043;-73
2022/09/15 13:30:56;;;;;;;1.55;0.93;;;;;;;;;;5053031;28;20046;-73
2022/09/15 13:33:38;;;;;;;3.30;1.33;;;;;;;;;;5052609;28;20485;-74
2022/09/15 13:36:12;;;;;;;6.65;1.55;;;;;;;;;;5053692;28;20111;-75
2022/09/15 13:38:56;;;;;;;2.78;1.70;;;;;;;;;;5051509;28;20049;-73
2022/09/15 13:41:34;;;;;;;4.75;2.13;;;;;;;;;;5053052;28;20028;-74
2022/09/15 13:44:04;;;;;;;3.53;1.00;;;;;;;;;;5052270;28;20548;-73
2022/09/15 13:46:31;;;;;;;5.57;1.42;;;;;;;;;;5053001;28;20033;-73
2022/09/15 13:49:16;;;;;;;2.90;1.10;;;;;;;;;;5051614;28;20024;-73
2022/09/15 13:51:45;;;;;;;5.85;1.10;;;;;;;;;;5050957;28;20553;-73
2022/09/15 13:54:18;;;;;;;3.85;0.90;;;;;;;;;;5051194;28;20232;-73
2022/09/15 13:56:46;;;;;;;2.95;1.10;;;;;;;;;;5052687;28;20023;-73
2022/09/15 13:59:20;;;;;;;3.28;1.20;;;;;;;;;;5052284;28;20469;-72
2022/09/15 14:01:47;;;;;;;6.00;2.22;;;;;;;;;;5053129;28;20052;-73
2022/09/15 14:04:15;;;;;;;3.47;1.00;;;;;;;;;;5053450;28;20028;-73
2022/09/15 14:06:43;;;;;;;4.00;1.30;;;;;;;;;;5053311;28;20077;-72
2022/09/15 14:09:21;;;;;;;4.25;1.35;;;;;;;;;;5054203;28;20033;-73
2022/09/15 14:11:48;;;;;;;3.90;1.17;;;;;;;;;;5054017;28;20037;-73
2022/09/15 14:14:26;;;;;;;4.47;2.40;;;;;;;;;;5054062;28;20076;-73
2022/09/15 14:16:53;;;;;;;4.90;1.83;;;;;;;;;;5054159;28;20025;-73
2022/09/15 14:19:31;;;;;;;3.33;1.30;;;;;;;;;;5053844;28;20025;-73
2022/09/15 14:21:57;;;;;;;2.97;1.02;;;;;;;;;;5054099;28;20024;-73
2022/09/15 14:24:28;;;;;;;2.33;1.25;;;;;;;;;;5053979;28;20025;-73
2022/09/15 14:26:55;;;;;;;6.13;1.02;;;;;;;;;;5053541;28;20033;-73
2022/09/15 14:29:25;;;;;;;2.70;0.90;;;;;;;;;;5052560;28;20033;-73
2022/09/15 14:31:52;;;;;;;2.45;1.13;;;;;;;;;;5054387;28;20013;-73
2022/09/15 14:34:22;;;;;;;2.22;0.93;;;;;;;;;;5053424;28;20141;-72
2022/09/15 14:37:01;;;;;;;5.53;1.00;;;;;;;;;;5053883;28;20104;-73
2022/09/15 14:39:27;;;;;;;1.95;1.00;;;;;;;;;;5053815;28;20354;-74
2022/09/15 14:41:53;;;;;;;4.72;1.58;;;;;;;;;;5053261;28;20025;-73
2022/09/15 14:44:21;;;;;;;3.38;0.90;;;;;;;;;;5053677;28;20104;-74
2022/09/15 14:46:47;;;;;;;4.38;1.20;;;;;;;;;;5051987;28;20033;-73
2022/09/15 14:49:14;;;;;;;2.90;1.50;;;;;;;;;;5053417;28;20078;-73
2022/09/15 14:51:41;;;;;;;5.53;1.60;;;;;;;;;;5053527;28;20049;-72
2022/09/15 14:54:11;;;;;;;1.90;0.80;;;;;;;;;;5053122;28;20385;-74
2022/09/15 14:56:40;;;;;;;3.90;1.27;;;;;;;;;;5053733;28;20025;-73
2022/09/15 14:59:13;;;;;;;5.60;1.30;;;;;;;;;;5053394;28;20020;-74
2022/09/15 15:01:58;;;;;;;4.97;1.20;;;;;;;;;;5053338;28;20374;-74
2022/09/15 15:04:40;;;;;;;6.38;1.33;;;;;;;;;;5053475;28;20483;-74
2022/09/15 15:07:13;;;;;;;6.80;1.23;;;;;;;;;;5053385;28;20048;-73
2022/09/15 15:09:42;;;;;;;5.45;1.70;;;;;;;;;;5053000;28;20098;-73
2022/09/15 15:12:28;;;;;;;7.80;1.63;;;;;;;;;;5053326;28;20026;-73
2022/09/15 15:14:55;;;;;;;5.35;2.05;;;;;;;;;;5052952;28;20444;-73
2022/09/15 15:17:26;;;;;;;8.18;1.98;;;;;;;;;;5053318;28;20057;-74
2022/09/15 15:20:22;;;;;;;5.75;1.67;;;;;;;;;;5053546;28;20053;-73
2022/09/15 15:23:03;;;;;;;3.50;1.52;;;;;;;;;;5029228;28;20029;-73
2022/09/15 15:25:31;;;;;;;4.38;1.50;;;;;;;;;;5053542;28;20017;-73
2022/09/15 15:27:58;;;;;;;2.83;1.13;;;;;;;;;;5053248;28;20059;-73
2022/09/15 15:30:28;;;;;;;4.18;1.30;;;;;;;;;;5052711;28;20025;-73
2022/09/15 15:32:55;;;;;;;3.47;1.17;;;;;;;;;;5053287;28;20055;-73
2022/09/15 15:35:21;;;;;;;7.85;1.40;;;;;;;;;;5053016;28;20043;-73
2022/09/15 15:37:48;;;;;;;3.75;1.33;;;;;;;;;;5052811;28;20436;-74
2022/09/15 15:40:19;;;;;;;8.18;1.92;;;;;;;;;;5053111;28;20485;-75
2022/09/15 15:43:01;;;;;;;3.50;1.30;;;;;;;;;;5052118;28;20020;-75
2022/09/15 15:45:32;;;;;;;3.88;1.55;;;;;;;;;;5053606;28;20029;-74
2022/09/15 15:48:00;;;;;;;7.03;2.53;;;;;;;;;;5053206;28;20048;-74
2022/09/15 15:50:27;;;;;;;10.80;3.70;;;;;;;;;;5052812;28;20135;-74
2022/09/15 15:52:54;;;;;;;7.22;2.95;;;;;;;;;;5053052;28;20021;-75
2022/09/15 15:55:21;;;;;;;17.92;10.48;;;;;;;;;;5052832;28;20046;-74
2022/09/15 15:57:49;;;;;;;15.90;9.05;;;;;;;;;;5052528;28;20025;-74
2022/09/15 16:00:34;;;;;;;18.65;9.27;;;;;;;;;;5052896;28;20039;-74
2022/09/15 16:03:00;;;;;;;10.00;5.15;;;;;;;;;;5056679;28;20112;-76
2022/09/15 16:05:28;;;;;;;10.40;4.50;;;;;;;;;;5056207;28;20064;-74
2022/09/15 16:07:55;;;;;;;18.30;8.70;;;;;;;;;;5056874;28;20029;-74
2022/09/15 16:10:23;;;;;;;27.48;10.88;;;;;;;;;;5056590;28;20097;-74
2022/09/15 16:12:49;;;;;;;38.38;16.30;;;;;;;;;;5056120;28;20029;-75
2022/09/15 16:15:17;;;;;;;70.90;28.17;;;;;;;;;;5056151;28;20049;-75
2022/09/15 16:17:43;;;;;;;53.42;24.10;;;;;;;;;;5056409;28;20378;-74
2022/09/15 16:20:10;;;;;;;46.38;21.33;;;;;;;;;;5055955;28;20060;-74
2022/09/15 16:22:36;;;;;;;40.60;18.13;;;;;;;;;;5056347;28;20025;-74
2022/09/15 16:25:10;;;;;;;42.85;20.42;;;;;;;;;;5056237;28;20104;-75
2022/09/15 16:27:37;;;;;;;44.38;18.17;;;;;;;;;;5055959;28;20032;-74
2022/09/15 16:30:03;;;;;;;34.42;14.68;;;;;;;;;;5056207;28;20528;-74
2022/09/15 16:32:31;;;;;;;30.40;12.43;;;;;;;;;;5055966;28;20025;-75
2022/09/15 16:34:57;;;;;;;29.30;12.40;;;;;;;;;;5056198;28;20036;-74
2022/09/15 16:37:23;;;;;;;22.45;9.90;;;;;;;;;;5056649;28;20051;-75
2022/09/15 16:39:51;;;;;;;22.02;8.88;;;;;;;;;;5055593;28;20545;-74
2022/09/15 16:42:17;;;;;;;13.50;4.63;;;;;;;;;;5054742;28;20032;-74
2022/09/15 16:44:45;;;;;;;8.40;3.78;;;;;;;;;;5055956;28;20021;-75
2022/09/15 16:47:11;;;;;;;8.90;3.67;;;;;;;;;;5055936;28;20078;-75
2022/09/15 16:49:38;;;;;;;9.20;3.53;;;;;;;;;;5055820;28;20071;-75
2022/09/15 16:52:04;;;;;;;7.03;3.15;;;;;;;;;;5055771;28;20021;-74
2022/09/15 16:54:31;;;;;;;11.23;3.25;;;;;;;;;;5055242;28;20477;-74
2022/09/15 16:56:58;;;;;;;6.15;2.55;;;;;;;;;;5055681;28;20044;-74
2022/09/15 16:59:24;;;;;;;6.85;2.72;;;;;;;;;;5054237;28;20497;-74
2022/09/15 17:01:50;;;;;;;6.32;2.35;;;;;;;;;;5055310;28;20056;-74
2022/09/15 17:07:03;;;;;;;6.38;2.45;;;;;;;;;;5111404;27;20402;-73
2022/09/15 17:09:29;;;;;;;8.23;2.33;;;;;;;;;;5109767;28;20037;-73
2022/09/15 17:11:55;;;;;;;7.30;3.03;;;;;;;;;;5111485;28;20028;-73
2022/09/15 17:14:21;;;;;;;9.40;2.97;;;;;;;;;;5110011;28;20403;-73
2022/09/15 17:16:51;;;;;;;8.55;2.95;;;;;;;;;;5110857;28;20027;-74
2022/09/15 17:19:49;;;;;;;6.82;3.08;;;;;;;;;;5091962;27;20921;-73
2022/09/15 17:22:15;;;;;;;9.55;4.13;;;;;;;;;;5089005;28;20025;-72